Union Star, KY (40171)

4:13 PM CDT on October 21, 2014 (GMT -0500)
Old Weldon | Change Station
CLOSE
Current Station
Personal Weather Station
Location: Brandenburg, KY
Elevation: 636 ft
Nearby Weather Stations

Elev 636 ft 37.97 °N, 86.13 °W | Updated 33 seconds ago

Mostly Cloudy
Mostly Cloudy
60.0 °F
Feels Like 60.0 °F
N
2.0
Wind Variable Wind from ENE
Gusts 12.0 mph

Today
High -- | Low -- °F
--% Chance of Precip.
Yesterday
High -- | Low -- °F
Precip. -- in
7:00 AM 6:00 PM
Waning Crescent, 4% visible
Pressure 30.08 in
Visibility 10.0 miles
Clouds Mostly Cloudy 6000 ft
Dew Point 46 °F
Humidity 60%
Rainfall 0.00 in
Snow Depth Not available.
UV 1 out of 12
Pollen 1.30 out of 12
Ozone Good
PM2.5 Good
Flu Activity Sporadic
METAR KFTK 212058Z AUTO 33009KT 10SM BKN060 15/05 A3007 RMK AO2 SLP186 60000 T01500050 53004

More Conditions Fewer Conditions

Pressure 30.08 in
Visibility 10.0 miles
Clouds Mostly Cloudy 6000 ft
Dew Point 46 °F
Humidity 60%
Rainfall 0.00 in
Snow Depth Not available.
UV 1 out of 12
Pollen 1.30 out of 12
Ozone Good
PM2.5 Good
Flu Activity Sporadic
METAR KFTK 212058Z AUTO 33009KT 10SM BKN060 15/05 A3007 RMK AO2 SLP186 60000 T01500050 53004

More Conditions Fewer Conditions

10-Day Weather Forecast

Almanac

Astronomy

Oct. 21, 2014 Rise Set
Actual Time 7:00 AM CDT 6:00 PM CDT
Civil Twilight 6:33 AM CDT 6:26 PM CDT
Nautical Twilight 6:02 AM CDT 6:57 PM CDT
Astronomical Twilight 5:32 AM CDT 7:27 PM CDT
Moon 4:46 AM CDT 4:52 PM CDT
Length of Visible Light 11h 53m
Length of Day
10h 59m
Tomorrow will be 2m 18s shorter.
Waning Crescent, 4% of the Moon is Illuminated
Today
Waning Crescent
Oct 23
New
Oct 30
First Quarter
Nov 6
Full
Nov 14
Last Quarter

Today's Extremes

State Highs State Lows

Community

WunderPhotos

Upload Photos

1,763,779 photos uploaded!

WunderBlogs® & News

Nearby

Air Quality

  Air Quality AQ Index Pollutant
Yesterday Good
PM10
Yesterday Good
OZONE
Current Good
PM2.5
Current Good
OZONE
Tuesday Good
PM2.5
Tuesday Good
OZONE
Wednesday Good
PM2.5
Wednesday Good
OZONE
Thursday Moderate
PM2.5
Thursday Good
OZONE

Snow Depth

Station Depth Elevation
No new snow has been reported.

Earthquake Activity

City Distance Mag. Time & Date
No recent earthquake activity has been reported nearby.
Minimum magnitude displayed is 2.5.

Coastal Water Temperatures

Place Temperature
No Stations Reporting

Nearby Weather Stations